sensor_id;sensor_type;location;lat;lon;timestamp;P1;durP1;ratioP1;P2;durP2;ratioP2
45392;SDS011;31129;44.810;10.334;2022-12-26T00:01:24;135.48;;;65.97;;
45392;SDS011;31129;44.810;10.334;2022-12-26T00:03:51;131.05;;;65.65;;
45392;SDS011;31129;44.810;10.334;2022-12-26T00:06:18;142.50;;;67.88;;
45392;SDS011;31129;44.810;10.334;2022-12-26T00:08:45;124.18;;;63.80;;
45392;SDS011;31129;44.810;10.334;2022-12-26T00:11:11;132.05;;;64.15;;
45392;SDS011;31129;44.810;10.334;2022-12-26T00:13:37;139.10;;;65.53;;
45392;SDS011;31129;44.810;10.334;2022-12-26T00:16:05;140.32;;;67.03;;
45392;SDS011;31129;44.810;10.334;2022-12-26T00:18:35;143.13;;;66.53;;
45392;SDS011;31129;44.810;10.334;2022-12-26T00:21:00;127.22;;;62.80;;
45392;SDS011;31129;44.810;10.334;2022-12-26T00:23:26;128.15;;;62.60;;
45392;SDS011;31129;44.810;10.334;2022-12-26T00:25:51;134.65;;;63.88;;
45392;SDS011;31129;44.810;10.334;2022-12-26T00:28:17;133.63;;;62.92;;
45392;SDS011;31129;44.810;10.334;2022-12-26T00:30:42;132.23;;;64.03;;
45392;SDS011;31129;44.810;10.334;2022-12-26T00:33:08;138.48;;;64.63;;
45392;SDS011;31129;44.810;10.334;2022-12-26T00:35:33;133.73;;;64.20;;
45392;SDS011;31129;44.810;10.334;2022-12-26T00:37:59;131.80;;;64.10;;
45392;SDS011;31129;44.810;10.334;2022-12-26T00:40:24;128.73;;;64.88;;
45392;SDS011;31129;44.810;10.334;2022-12-26T00:42:49;133.20;;;65.25;;
45392;SDS011;31129;44.810;10.334;2022-12-26T00:45:15;126.07;;;63.08;;
45392;SDS011;31129;44.810;10.334;2022-12-26T00:47:40;118.47;;;58.78;;
45392;SDS011;31129;44.810;10.334;2022-12-26T00:50:06;132.38;;;64.20;;
45392;SDS011;31129;44.810;10.334;2022-12-26T00:52:32;123.00;;;60.80;;
45392;SDS011;31129;44.810;10.334;2022-12-26T00:54:57;117.40;;;59.90;;
45392;SDS011;31129;44.810;10.334;2022-12-26T00:57:23;120.45;;;59.70;;
45392;SDS011;31129;44.810;10.334;2022-12-26T00:59:49;117.60;;;56.85;;
45392;SDS011;31129;44.810;10.334;2022-12-26T01:02:14;114.72;;;58.72;;
45392;SDS011;31129;44.810;10.334;2022-12-26T01:04:58;109.43;;;55.95;;
45392;SDS011;31129;44.810;10.334;2022-12-26T01:07:24;107.93;;;55.90;;
45392;SDS011;31129;44.810;10.334;2022-12-26T01:09:49;125.07;;;62.42;;
45392;SDS011;31129;44.810;10.334;2022-12-26T01:14:43;103.00;;;54.50;;
45392;SDS011;31129;44.810;10.334;2022-12-26T01:17:08;111.53;;;54.25;;
45392;SDS011;31129;44.810;10.334;2022-12-26T01:19:34;107.65;;;55.38;;
45392;SDS011;31129;44.810;10.334;2022-12-26T01:21:59;111.63;;;56.65;;
45392;SDS011;31129;44.810;10.334;2022-12-26T01:24:25;111.40;;;56.17;;
45392;SDS011;31129;44.810;10.334;2022-12-26T01:26:50;119.43;;;62.10;;
45392;SDS011;31129;44.810;10.334;2022-12-26T01:29:15;117.90;;;60.15;;
45392;SDS011;31129;44.810;10.334;2022-12-26T01:31:41;119.50;;;60.40;;
45392;SDS011;31129;44.810;10.334;2022-12-26T01:34:06;121.95;;;58.83;;
45392;SDS011;31129;44.810;10.334;2022-12-26T01:36:32;119.30;;;60.47;;
45392;SDS011;31129;44.810;10.334;2022-12-26T01:38:58;118.30;;;58.47;;
45392;SDS011;31129;44.810;10.334;2022-12-26T01:41:23;118.70;;;57.78;;
45392;SDS011;31129;44.810;10.334;2022-12-26T01:46:39;119.38;;;60.03;;
45392;SDS011;31129;44.810;10.334;2022-12-26T01:49:12;127.20;;;60.80;;
45392;SDS011;31129;44.810;10.334;2022-12-26T01:51:39;121.70;;;58.13;;
45392;SDS011;31129;44.810;10.334;2022-12-26T01:54:09;118.53;;;59.92;;
45392;SDS011;31129;44.810;10.334;2022-12-26T01:56:38;114.90;;;56.40;;
45392;SDS011;31129;44.810;10.334;2022-12-26T01:59:10;115.50;;;58.60;;
45392;SDS011;31129;44.810;10.334;2022-12-26T02:01:41;120.00;;;59.70;;
45392;SDS011;31129;44.810;10.334;2022-12-26T02:04:11;124.15;;;58.88;;
45392;SDS011;31129;44.810;10.334;2022-12-26T02:07:00;113.50;;;56.92;;
45392;SDS011;31129;44.810;10.334;2022-12-26T02:09:29;124.22;;;58.95;;
45392;SDS011;31129;44.810;10.334;2022-12-26T02:11:57;122.50;;;58.60;;
45392;SDS011;31129;44.810;10.334;2022-12-26T02:14:29;122.38;;;60.58;;
45392;SDS011;31129;44.810;10.334;2022-12-26T02:16:54;119.55;;;60.83;;
45392;SDS011;31129;44.810;10.334;2022-12-26T02:19:23;115.32;;;57.85;;
45392;SDS011;31129;44.810;10.334;2022-12-26T02:32:33;127.35;;;63.30;;
45392;SDS011;31129;44.810;10.334;2022-12-26T02:37:40;128.00;;;59.53;;
45392;SDS011;31129;44.810;10.334;2022-12-26T02:55:05;131.48;;;63.15;;
45392;SDS011;31129;44.810;10.334;2022-12-26T02:58:04;120.78;;;56.53;;
45392;SDS011;31129;44.810;10.334;2022-12-26T03:00:49;120.90;;;57.88;;
45392;SDS011;31129;44.810;10.334;2022-12-26T03:03:42;119.55;;;59.30;;
45392;SDS011;31129;44.810;10.334;2022-12-26T03:06:30;124.10;;;59.60;;
45392;SDS011;31129;44.810;10.334;2022-12-26T03:09:19;113.18;;;57.38;;
45392;SDS011;31129;44.810;10.334;2022-12-26T03:15:12;118.35;;;57.60;;
45392;SDS011;31129;44.810;10.334;2022-12-26T03:17:41;118.53;;;57.53;;
45392;SDS011;31129;44.810;10.334;2022-12-26T03:20:23;119.65;;;59.13;;
45392;SDS011;31129;44.810;10.334;2022-12-26T03:22:56;122.63;;;58.30;;
45392;SDS011;31129;44.810;10.334;2022-12-26T03:28:20;115.38;;;57.15;;
45392;SDS011;31129;44.810;10.334;2022-12-26T03:30:47;116.63;;;58.17;;
45392;SDS011;31129;44.810;10.334;2022-12-26T03:33:23;118.13;;;59.22;;
45392;SDS011;31129;44.810;10.334;2022-12-26T03:53:35;112.05;;;54.10;;
45392;SDS011;31129;44.810;10.334;2022-12-26T03:56:29;108.75;;;55.67;;
45392;SDS011;31129;44.810;10.334;2022-12-26T03:59:29;111.18;;;53.72;;
45392;SDS011;31129;44.810;10.334;2022-12-26T04:02:19;112.70;;;56.75;;
45392;SDS011;31129;44.810;10.334;2022-12-26T04:05:03;113.88;;;55.30;;
45392;SDS011;31129;44.810;10.334;2022-12-26T04:07:52;121.10;;;58.97;;
45392;SDS011;31129;44.810;10.334;2022-12-26T04:10:41;115.88;;;57.55;;
45392;SDS011;31129;44.810;10.334;2022-12-26T04:16:33;111.20;;;55.55;;
45392;SDS011;31129;44.810;10.334;2022-12-26T04:25:20;112.22;;;54.75;;
45392;SDS011;31129;44.810;10.334;2022-12-26T04:28:08;113.85;;;55.15;;
45392;SDS011;31129;44.810;10.334;2022-12-26T04:30:55;112.03;;;56.17;;
45392;SDS011;31129;44.810;10.334;2022-12-26T04:33:49;111.03;;;55.38;;
45392;SDS011;31129;44.810;10.334;2022-12-26T04:36:38;109.30;;;51.35;;
45392;SDS011;31129;44.810;10.334;2022-12-26T04:39:28;112.03;;;54.22;;
45392;SDS011;31129;44.810;10.334;2022-12-26T04:42:15;108.07;;;54.33;;
45392;SDS011;31129;44.810;10.334;2022-12-26T04:45:02;106.43;;;55.03;;
45392;SDS011;31129;44.810;10.334;2022-12-26T04:47:30;111.38;;;56.08;;
45392;SDS011;31129;44.810;10.334;2022-12-26T04:49:56;104.38;;;54.72;;
45392;SDS011;31129;44.810;10.334;2022-12-26T04:52:37;113.50;;;57.17;;
45392;SDS011;31129;44.810;10.334;2022-12-26T04:55:22;116.88;;;55.70;;
45392;SDS011;31129;44.810;10.334;2022-12-26T04:57:47;120.03;;;58.50;;
45392;SDS011;31129;44.810;10.334;2022-12-26T05:00:13;119.68;;;58.05;;
45392;SDS011;31129;44.810;10.334;2022-12-26T05:02:38;121.05;;;59.95;;
45392;SDS011;31129;44.810;10.334;2022-12-26T05:05:23;122.10;;;58.38;;
45392;SDS011;31129;44.810;10.334;2022-12-26T05:08:09;130.23;;;59.60;;
45392;SDS011;31129;44.810;10.334;2022-12-26T05:11:05;126.93;;;58.60;;
45392;SDS011;31129;44.810;10.334;2022-12-26T05:13:30;123.35;;;58.53;;
45392;SDS011;31129;44.810;10.334;2022-12-26T05:15:56;118.32;;;57.97;;
45392;SDS011;31129;44.810;10.334;2022-12-26T05:18:40;124.70;;;57.25;;
45392;SDS011;31129;44.810;10.334;2022-12-26T05:21:24;125.07;;;59.80;;
45392;SDS011;31129;44.810;10.334;2022-12-26T05:24:08;121.55;;;57.90;;
45392;SDS011;31129;44.810;10.334;2022-12-26T05:26:53;127.90;;;57.88;;
45392;SDS011;31129;44.810;10.334;2022-12-26T05:29:37;119.90;;;57.58;;
45392;SDS011;31129;44.810;10.334;2022-12-26T05:32:03;115.82;;;54.15;;
45392;SDS011;31129;44.810;10.334;2022-12-26T05:34:28;118.82;;;57.88;;
45392;SDS011;31129;44.810;10.334;2022-12-26T05:36:54;119.03;;;56.97;;
45392;SDS011;31129;44.810;10.334;2022-12-26T05:39:23;114.50;;;56.65;;
45392;SDS011;31129;44.810;10.334;2022-12-26T05:41:49;118.32;;;56.28;;
45392;SDS011;31129;44.810;10.334;2022-12-26T05:44:15;119.93;;;57.90;;
45392;SDS011;31129;44.810;10.334;2022-12-26T05:46:40;117.35;;;56.38;;
45392;SDS011;31129;44.810;10.334;2022-12-26T05:49:10;114.90;;;55.97;;
45392;SDS011;31129;44.810;10.334;2022-12-26T05:51:36;120.95;;;55.83;;
45392;SDS011;31129;44.810;10.334;2022-12-26T05:54:01;120.20;;;55.83;;
45392;SDS011;31129;44.810;10.334;2022-12-26T05:56:27;126.68;;;56.38;;
45392;SDS011;31129;44.810;10.334;2022-12-26T05:58:57;127.10;;;59.92;;
45392;SDS011;31129;44.810;10.334;2022-12-26T06:01:24;120.40;;;56.97;;
45392;SDS011;31129;44.810;10.334;2022-12-26T06:03:52;141.50;;;62.40;;
45392;SDS011;31129;44.810;10.334;2022-12-26T06:06:19;146.38;;;62.70;;
45392;SDS011;31129;44.810;10.334;2022-12-26T06:08:46;125.88;;;58.10;;
45392;SDS011;31129;44.810;10.334;2022-12-26T06:11:13;122.55;;;57.92;;
45392;SDS011;31129;44.810;10.334;2022-12-26T06:13:38;130.60;;;58.00;;
45392;SDS011;31129;44.810;10.334;2022-12-26T06:16:05;127.25;;;55.78;;
45392;SDS011;31129;44.810;10.334;2022-12-26T06:18:32;126.63;;;57.22;;
45392;SDS011;31129;44.810;10.334;2022-12-26T06:20:58;122.53;;;56.80;;
45392;SDS011;31129;44.810;10.334;2022-12-26T06:23:23;128.00;;;61.97;;
45392;SDS011;31129;44.810;10.334;2022-12-26T06:25:53;132.60;;;58.15;;
45392;SDS011;31129;44.810;10.334;2022-12-26T06:28:19;135.50;;;61.15;;
45392;SDS011;31129;44.810;10.334;2022-12-26T06:30:45;125.85;;;56.60;;
45392;SDS011;31129;44.810;10.334;2022-12-26T06:33:10;122.47;;;56.33;;
45392;SDS011;31129;44.810;10.334;2022-12-26T06:35:36;130.23;;;56.53;;
45392;SDS011;31129;44.810;10.334;2022-12-26T06:38:01;119.65;;;55.42;;
45392;SDS011;31129;44.810;10.334;2022-12-26T06:40:27;116.53;;;55.92;;
45392;SDS011;31129;44.810;10.334;2022-12-26T06:42:53;118.45;;;56.13;;
45392;SDS011;31129;44.810;10.334;2022-12-26T06:45:18;123.53;;;56.30;;
45392;SDS011;31129;44.810;10.334;2022-12-26T06:47:44;128.25;;;56.40;;
45392;SDS011;31129;44.810;10.334;2022-12-26T06:50:10;119.75;;;57.30;;
45392;SDS011;31129;44.810;10.334;2022-12-26T06:52:36;124.13;;;58.60;;
45392;SDS011;31129;44.810;10.334;2022-12-26T06:55:01;121.75;;;57.30;;
45392;SDS011;31129;44.810;10.334;2022-12-26T06:57:27;119.75;;;54.80;;
45392;SDS011;31129;44.810;10.334;2022-12-26T06:59:52;123.25;;;56.08;;
45392;SDS011;31129;44.810;10.334;2022-12-26T07:02:18;118.55;;;54.72;;
45392;SDS011;31129;44.810;10.334;2022-12-26T07:07:11;125.68;;;55.00;;
45392;SDS011;31129;44.810;10.334;2022-12-26T07:09:37;123.72;;;53.53;;
45392;SDS011;31129;44.810;10.334;2022-12-26T07:12:02;123.93;;;56.22;;
45392;SDS011;31129;44.810;10.334;2022-12-26T07:14:28;120.55;;;55.45;;
45392;SDS011;31129;44.810;10.334;2022-12-26T07:16:53;113.47;;;53.70;;
45392;SDS011;31129;44.810;10.334;2022-12-26T07:19:19;119.85;;;53.63;;
45392;SDS011;31129;44.810;10.334;2022-12-26T07:21:45;120.50;;;56.08;;
45392;SDS011;31129;44.810;10.334;2022-12-26T07:24:18;136.35;;;58.30;;
45392;SDS011;31129;44.810;10.334;2022-12-26T07:26:44;111.65;;;54.28;;
45392;SDS011;31129;44.810;10.334;2022-12-26T07:29:11;126.00;;;59.65;;
45392;SDS011;31129;44.810;10.334;2022-12-26T07:31:38;128.43;;;59.92;;
45392;SDS011;31129;44.810;10.334;2022-12-26T07:34:04;122.57;;;56.85;;
45392;SDS011;31129;44.810;10.334;2022-12-26T07:36:29;121.88;;;59.88;;
45392;SDS011;31129;44.810;10.334;2022-12-26T07:38:55;118.22;;;56.70;;
45392;SDS011;31129;44.810;10.334;2022-12-26T07:41:21;118.80;;;57.40;;
45392;SDS011;31129;44.810;10.334;2022-12-26T07:44:05;117.30;;;55.67;;
45392;SDS011;31129;44.810;10.334;2022-12-26T07:46:31;121.00;;;58.30;;
45392;SDS011;31129;44.810;10.334;2022-12-26T07:48:56;124.50;;;59.88;;
45392;SDS011;31129;44.810;10.334;2022-12-26T07:51:22;119.18;;;58.53;;
45392;SDS011;31129;44.810;10.334;2022-12-26T07:53:47;125.28;;;58.92;;
45392;SDS011;31129;44.810;10.334;2022-12-26T07:56:13;120.60;;;59.60;;
45392;SDS011;31129;44.810;10.334;2022-12-26T07:58:38;123.35;;;61.17;;
45392;SDS011;31129;44.810;10.334;2022-12-26T08:01:04;125.35;;;60.45;;
45392;SDS011;31129;44.810;10.334;2022-12-26T08:03:31;128.95;;;60.30;;
45392;SDS011;31129;44.810;10.334;2022-12-26T08:05:57;122.78;;;59.60;;
45392;SDS011;31129;44.810;10.334;2022-12-26T08:08:23;118.63;;;59.28;;
45392;SDS011;31129;44.810;10.334;2022-12-26T08:10:56;116.28;;;57.90;;
45392;SDS011;31129;44.810;10.334;2022-12-26T08:13:27;127.03;;;62.35;;
45392;SDS011;31129;44.810;10.334;2022-12-26T08:15:53;122.60;;;58.65;;
45392;SDS011;31129;44.810;10.334;2022-12-26T08:18:19;116.15;;;57.97;;
45392;SDS011;31129;44.810;10.334;2022-12-26T08:20:45;117.00;;;60.78;;
45392;SDS011;31129;44.810;10.334;2022-12-26T08:23:10;121.50;;;59.92;;
45392;SDS011;31129;44.810;10.334;2022-12-26T08:25:36;120.13;;;59.80;;
45392;SDS011;31129;44.810;10.334;2022-12-26T08:28:01;117.43;;;59.72;;
45392;SDS011;31129;44.810;10.334;2022-12-26T08:30:27;115.80;;;58.65;;
45392;SDS011;31129;44.810;10.334;2022-12-26T08:32:52;119.28;;;60.13;;
45392;SDS011;31129;44.810;10.334;2022-12-26T08:35:19;114.80;;;57.30;;
45392;SDS011;31129;44.810;10.334;2022-12-26T08:37:45;110.95;;;57.22;;
45392;SDS011;31129;44.810;10.334;2022-12-26T08:40:11;117.55;;;58.13;;
45392;SDS011;31129;44.810;10.334;2022-12-26T08:42:37;117.38;;;58.85;;
45392;SDS011;31129;44.810;10.334;2022-12-26T08:45:03;115.95;;;56.97;;
45392;SDS011;31129;44.810;10.334;2022-12-26T08:47:28;110.63;;;56.75;;
45392;SDS011;31129;44.810;10.334;2022-12-26T08:49:54;117.07;;;58.78;;
45392;SDS011;31129;44.810;10.334;2022-12-26T08:52:19;115.40;;;58.40;;
45392;SDS011;31129;44.810;10.334;2022-12-26T08:54:45;113.82;;;56.90;;
45392;SDS011;31129;44.810;10.334;2022-12-26T08:57:10;120.10;;;58.72;;
45392;SDS011;31129;44.810;10.334;2022-12-26T08:59:36;120.28;;;59.30;;
45392;SDS011;31129;44.810;10.334;2022-12-26T09:02:02;111.15;;;59.75;;
45392;SDS011;31129;44.810;10.334;2022-12-26T09:04:27;116.25;;;57.75;;
45392;SDS011;31129;44.810;10.334;2022-12-26T09:06:53;108.90;;;55.17;;
45392;SDS011;31129;44.810;10.334;2022-12-26T09:09:18;109.53;;;57.22;;
45392;SDS011;31129;44.810;10.334;2022-12-26T09:11:44;102.22;;;52.53;;
45392;SDS011;31129;44.810;10.334;2022-12-26T09:14:10;109.63;;;55.60;;
45392;SDS011;31129;44.810;10.334;2022-12-26T09:16:40;105.65;;;54.47;;
45392;SDS011;31129;44.810;10.334;2022-12-26T09:19:08;107.35;;;53.40;;
45392;SDS011;31129;44.810;10.334;2022-12-26T09:21:36;108.28;;;54.42;;
45392;SDS011;31129;44.810;10.334;2022-12-26T09:24:03;97.35;;;48.47;;
45392;SDS011;31129;44.810;10.334;2022-12-26T09:26:31;103.55;;;53.97;;
45392;SDS011;31129;44.810;10.334;2022-12-26T09:28:57;98.25;;;50.72;;
45392;SDS011;31129;44.810;10.334;2022-12-26T09:31:24;99.05;;;51.00;;
45392;SDS011;31129;44.810;10.334;2022-12-26T09:33:51;92.95;;;49.03;;
45392;SDS011;31129;44.810;10.334;2022-12-26T09:36:22;91.38;;;48.83;;
45392;SDS011;31129;44.810;10.334;2022-12-26T09:38:50;95.40;;;50.33;;
45392;SDS011;31129;44.810;10.334;2022-12-26T09:49:59;74.43;;;40.35;;
45392;SDS011;31129;44.810;10.334;2022-12-26T09:55:33;74.05;;;41.92;;
45392;SDS011;31129;44.810;10.334;2022-12-26T09:58:28;72.00;;;41.72;;
45392;SDS011;31129;44.810;10.334;2022-12-26T10:00:55;76.80;;;40.90;;
45392;SDS011;31129;44.810;10.334;2022-12-26T10:03:25;79.00;;;47.55;;
45392;SDS011;31129;44.810;10.334;2022-12-26T10:24:42;69.75;;;40.35;;
45392;SDS011;31129;44.810;10.334;2022-12-26T10:27:14;69.80;;;41.28;;
45392;SDS011;31129;44.810;10.334;2022-12-26T10:29:42;74.07;;;44.17;;
45392;SDS011;31129;44.810;10.334;2022-12-26T10:32:15;70.05;;;41.15;;
45392;SDS011;31129;44.810;10.334;2022-12-26T10:34:44;70.93;;;41.60;;
45392;SDS011;31129;44.810;10.334;2022-12-26T10:37:26;75.32;;;42.35;;
45392;SDS011;31129;44.810;10.334;2022-12-26T10:42:40;64.03;;;38.83;;
45392;SDS011;31129;44.810;10.334;2022-12-26T10:46:09;66.88;;;38.38;;
45392;SDS011;31129;44.810;10.334;2022-12-26T10:48:02;63.40;;;37.70;;
45392;SDS011;31129;44.810;10.334;2022-12-26T10:50:31;55.30;;;35.33;;
45392;SDS011;31129;44.810;10.334;2022-12-26T10:52:59;70.30;;;39.45;;
45392;SDS011;31129;44.810;10.334;2022-12-26T10:55:32;67.30;;;38.53;;
45392;SDS011;31129;44.810;10.334;2022-12-26T10:58:10;66.15;;;39.28;;
45392;SDS011;31129;44.810;10.334;2022-12-26T11:00:40;61.03;;;37.13;;
45392;SDS011;31129;44.810;10.334;2022-12-26T11:03:07;56.90;;;36.30;;
45392;SDS011;31129;44.810;10.334;2022-12-26T11:05:37;58.17;;;37.35;;
45392;SDS011;31129;44.810;10.334;2022-12-26T11:08:15;55.25;;;35.25;;
45392;SDS011;31129;44.810;10.334;2022-12-26T11:10:41;63.40;;;37.47;;
45392;SDS011;31129;44.810;10.334;2022-12-26T11:13:19;61.30;;;36.40;;
45392;SDS011;31129;44.810;10.334;2022-12-26T11:15:50;56.25;;;35.90;;
45392;SDS011;31129;44.810;10.334;2022-12-26T11:18:18;52.97;;;33.00;;
45392;SDS011;31129;44.810;10.334;2022-12-26T11:20:48;53.78;;;33.95;;
45392;SDS011;31129;44.810;10.334;2022-12-26T11:23:20;48.25;;;31.63;;
45392;SDS011;31129;44.810;10.334;2022-12-26T11:25:59;48.15;;;31.45;;
45392;SDS011;31129;44.810;10.334;2022-12-26T11:30:59;45.85;;;31.27;;
45392;SDS011;31129;44.810;10.334;2022-12-26T11:33:35;42.05;;;29.63;;
45392;SDS011;31129;44.810;10.334;2022-12-26T11:36:16;42.40;;;28.83;;
45392;SDS011;31129;44.810;10.334;2022-12-26T11:41:14;45.97;;;29.80;;
45392;SDS011;31129;44.810;10.334;2022-12-26T11:46:37;48.47;;;31.98;;
45392;SDS011;31129;44.810;10.334;2022-12-26T11:49:03;46.78;;;31.65;;
45392;SDS011;31129;44.810;10.334;2022-12-26T11:51:40;43.85;;;29.98;;
45392;SDS011;31129;44.810;10.334;2022-12-26T11:56:47;42.38;;;30.27;;
45392;SDS011;31129;44.810;10.334;2022-12-26T11:59:20;41.97;;;27.20;;
45392;SDS011;31129;44.810;10.334;2022-12-26T12:01:48;42.80;;;28.92;;
45392;SDS011;31129;44.810;10.334;2022-12-26T12:04:34;40.63;;;27.30;;
45392;SDS011;31129;44.810;10.334;2022-12-26T12:07:02;37.83;;;26.55;;
45392;SDS011;31129;44.810;10.334;2022-12-26T12:10:06;37.20;;;26.40;;
45392;SDS011;31129;44.810;10.334;2022-12-26T12:15:50;40.25;;;28.13;;
45392;SDS011;31129;44.810;10.334;2022-12-26T12:19:24;46.65;;;28.88;;
45392;SDS011;31129;44.810;10.334;2022-12-26T12:21:38;46.03;;;30.33;;
45392;SDS011;31129;44.810;10.334;2022-12-26T12:26:40;45.58;;;32.95;;
45392;SDS011;31129;44.810;10.334;2022-12-26T12:40:33;46.20;;;30.23;;
45392;SDS011;31129;44.810;10.334;2022-12-26T12:43:20;43.63;;;29.33;;
45392;SDS011;31129;44.810;10.334;2022-12-26T12:48:46;48.90;;;33.35;;
45392;SDS011;31129;44.810;10.334;2022-12-26T12:51:39;53.83;;;32.78;;
45392;SDS011;31129;44.810;10.334;2022-12-26T12:54:36;51.10;;;33.47;;
45392;SDS011;31129;44.810;10.334;2022-12-26T12:57:22;50.85;;;32.90;;
45392;SDS011;31129;44.810;10.334;2022-12-26T12:59:58;57.30;;;34.97;;
45392;SDS011;31129;44.810;10.334;2022-12-26T13:02:39;51.35;;;33.95;;
45392;SDS011;31129;44.810;10.334;2022-12-26T13:05:51;45.50;;;31.35;;
45392;SDS011;31129;44.810;10.334;2022-12-26T13:11:04;53.88;;;34.15;;
45392;SDS011;31129;44.810;10.334;2022-12-26T13:13:40;49.60;;;33.33;;
45392;SDS011;31129;44.810;10.334;2022-12-26T13:16:16;48.53;;;34.15;;
45392;SDS011;31129;44.810;10.334;2022-12-26T13:18:48;52.47;;;34.05;;
45392;SDS011;31129;44.810;10.334;2022-12-26T13:21:21;47.88;;;32.25;;
45392;SDS011;31129;44.810;10.334;2022-12-26T13:23:55;48.00;;;30.52;;
45392;SDS011;31129;44.810;10.334;2022-12-26T13:27:04;48.28;;;32.20;;
45392;SDS011;31129;44.810;10.334;2022-12-26T13:29:41;51.75;;;32.90;;
45392;SDS011;31129;44.810;10.334;2022-12-26T13:32:21;47.17;;;32.28;;
45392;SDS011;31129;44.810;10.334;2022-12-26T13:34:50;45.17;;;30.17;;
45392;SDS011;31129;44.810;10.334;2022-12-26T13:40:02;45.25;;;30.02;;
45392;SDS011;31129;44.810;10.334;2022-12-26T13:42:33;49.53;;;32.40;;
45392;SDS011;31129;44.810;10.334;2022-12-26T13:55:56;53.78;;;34.15;;
45392;SDS011;31129;44.810;10.334;2022-12-26T14:01:33;46.70;;;31.75;;
45392;SDS011;31129;44.810;10.334;2022-12-26T14:14:29;56.58;;;35.92;;
45392;SDS011;31129;44.810;10.334;2022-12-26T14:20:15;52.92;;;36.95;;
45392;SDS011;31129;44.810;10.334;2022-12-26T14:25:29;57.20;;;35.08;;
45392;SDS011;31129;44.810;10.334;2022-12-26T14:34:08;56.20;;;35.20;;
45392;SDS011;31129;44.810;10.334;2022-12-26T14:44:53;54.25;;;33.97;;
45392;SDS011;31129;44.810;10.334;2022-12-26T14:55:47;59.45;;;36.83;;
45392;SDS011;31129;44.810;10.334;2022-12-26T15:13:18;55.95;;;35.55;;
45392;SDS011;31129;44.810;10.334;2022-12-26T15:32:59;61.42;;;37.95;;
45392;SDS011;31129;44.810;10.334;2022-12-26T15:35:33;66.45;;;38.28;;
45392;SDS011;31129;44.810;10.334;2022-12-26T15:40:44;60.28;;;37.28;;
45392;SDS011;31129;44.810;10.334;2022-12-26T15:52:03;63.33;;;37.47;;
45392;SDS011;31129;44.810;10.334;2022-12-26T16:00:10;67.28;;;38.28;;
45392;SDS011;31129;44.810;10.334;2022-12-26T16:03:29;63.10;;;37.95;;
45392;SDS011;31129;44.810;10.334;2022-12-26T16:05:54;67.28;;;39.03;;
45392;SDS011;31129;44.810;10.334;2022-12-26T16:11:21;65.65;;;39.55;;
45392;SDS011;31129;44.810;10.334;2022-12-26T16:16:32;63.53;;;37.67;;
45392;SDS011;31129;44.810;10.334;2022-12-26T16:19:15;71.00;;;40.15;;
45392;SDS011;31129;44.810;10.334;2022-12-26T16:21:50;61.85;;;38.53;;
45392;SDS011;31129;44.810;10.334;2022-12-26T16:24:38;70.15;;;39.33;;
45392;SDS011;31129;44.810;10.334;2022-12-26T16:27:06;68.45;;;38.92;;
45392;SDS011;31129;44.810;10.334;2022-12-26T16:29:33;70.23;;;40.33;;
45392;SDS011;31129;44.810;10.334;2022-12-26T16:32:11;64.47;;;39.30;;
45392;SDS011;31129;44.810;10.334;2022-12-26T16:34:41;69.20;;;41.17;;
45392;SDS011;31129;44.810;10.334;2022-12-26T16:37:08;63.38;;;39.33;;
45392;SDS011;31129;44.810;10.334;2022-12-26T16:42:46;70.25;;;39.85;;
45392;SDS011;31129;44.810;10.334;2022-12-26T16:45:20;69.05;;;39.65;;
45392;SDS011;31129;44.810;10.334;2022-12-26T16:47:49;74.32;;;41.15;;
45392;SDS011;31129;44.810;10.334;2022-12-26T16:50:19;67.70;;;39.65;;
45392;SDS011;31129;44.810;10.334;2022-12-26T16:52:59;68.28;;;42.42;;
45392;SDS011;31129;44.810;10.334;2022-12-26T16:55:39;68.50;;;40.50;;
45392;SDS011;31129;44.810;10.334;2022-12-26T16:58:25;67.45;;;41.33;;
45392;SDS011;31129;44.810;10.334;2022-12-26T17:01:09;65.93;;;40.53;;
45392;SDS011;31129;44.810;10.334;2022-12-26T17:06:15;70.30;;;40.40;;
45392;SDS011;31129;44.810;10.334;2022-12-26T17:08:48;67.93;;;41.47;;
45392;SDS011;31129;44.810;10.334;2022-12-26T17:11:16;67.43;;;40.87;;
45392;SDS011;31129;44.810;10.334;2022-12-26T17:13:49;72.88;;;40.85;;
45392;SDS011;31129;44.810;10.334;2022-12-26T17:16:19;67.18;;;41.38;;
45392;SDS011;31129;44.810;10.334;2022-12-26T17:18:52;66.30;;;41.20;;
45392;SDS011;31129;44.810;10.334;2022-12-26T17:26:31;65.97;;;40.70;;
45392;SDS011;31129;44.810;10.334;2022-12-26T17:28:57;66.93;;;41.75;;
45392;SDS011;31129;44.810;10.334;2022-12-26T17:36:19;68.85;;;40.53;;
45392;SDS011;31129;44.810;10.334;2022-12-26T17:38:44;68.55;;;41.92;;
45392;SDS011;31129;44.810;10.334;2022-12-26T17:41:11;67.90;;;40.67;;
45392;SDS011;31129;44.810;10.334;2022-12-26T17:43:39;72.68;;;43.97;;
45392;SDS011;31129;44.810;10.334;2022-12-26T17:46:07;68.25;;;40.70;;
45392;SDS011;31129;44.810;10.334;2022-12-26T17:48:40;73.07;;;41.90;;
45392;SDS011;31129;44.810;10.334;2022-12-26T17:51:13;69.85;;;40.40;;
45392;SDS011;31129;44.810;10.334;2022-12-26T17:53:43;75.05;;;41.95;;
45392;SDS011;31129;44.810;10.334;2022-12-26T17:56:14;69.38;;;41.03;;
45392;SDS011;31129;44.810;10.334;2022-12-26T17:58:59;68.75;;;41.38;;
45392;SDS011;31129;44.810;10.334;2022-12-26T18:01:50;70.40;;;42.05;;
45392;SDS011;31129;44.810;10.334;2022-12-26T18:04:16;68.15;;;41.42;;
45392;SDS011;31129;44.810;10.334;2022-12-26T18:06:42;68.28;;;41.47;;
45392;SDS011;31129;44.810;10.334;2022-12-26T18:09:09;72.10;;;40.92;;
45392;SDS011;31129;44.810;10.334;2022-12-26T18:11:50;69.53;;;42.65;;
45392;SDS011;31129;44.810;10.334;2022-12-26T18:14:18;65.82;;;41.40;;
45392;SDS011;31129;44.810;10.334;2022-12-26T18:16:43;74.10;;;43.00;;
45392;SDS011;31129;44.810;10.334;2022-12-26T18:19:16;70.70;;;42.53;;
45392;SDS011;31129;44.810;10.334;2022-12-26T18:21:43;70.10;;;42.38;;
45392;SDS011;31129;44.810;10.334;2022-12-26T18:24:09;69.25;;;41.70;;
45392;SDS011;31129;44.810;10.334;2022-12-26T18:26:36;72.70;;;44.03;;
45392;SDS011;31129;44.810;10.334;2022-12-26T18:29:01;65.60;;;41.05;;
45392;SDS011;31129;44.810;10.334;2022-12-26T18:31:27;70.68;;;41.65;;
45392;SDS011;31129;44.810;10.334;2022-12-26T18:33:53;69.47;;;42.13;;
45392;SDS011;31129;44.810;10.334;2022-12-26T18:36:19;66.93;;;40.10;;
45392;SDS011;31129;44.810;10.334;2022-12-26T18:38:47;71.72;;;42.35;;
45392;SDS011;31129;44.810;10.334;2022-12-26T18:41:14;78.38;;;44.08;;
45392;SDS011;31129;44.810;10.334;2022-12-26T18:43:41;67.63;;;41.10;;
45392;SDS011;31129;44.810;10.334;2022-12-26T18:46:14;68.60;;;42.45;;
45392;SDS011;31129;44.810;10.334;2022-12-26T18:48:44;71.65;;;43.30;;